CHB6579 ZHCC-ZPPP
Flight info
| Callsign | CHB6579 |
|---|---|
| Flight time | N/A |
| Altitude | 34100 |
| Route | DUD9W DUDBI W37 DUBAS R343 WHA A581 XISLI XISLI5N |
| Aircraft | A320/M-SDE3FGHIRWY/LB1 |
Departure
| Time | 2026-04-23 10:22 |
|---|---|
| Airport | Zhengzhou Xinzheng International Airport (ZHCC) |
Arrival
| Time | N/A |
|---|---|
| Airport | Kunming Changshui International Airport (ZPPP) |
| Time | Latitude | Longitude | Altitude | Speed | Heading |
|---|---|---|---|---|---|
| 2026-04-23 09:59 | 34.52393 | 113.84781 | 505 ft | 0 kts | 22° |
| 2026-04-23 10:04 | 34.52390 | 113.84779 | 505 ft | 3 kts | 22° |
| 2026-04-23 10:04 | 34.52366 | 113.84767 | 505 ft | 2 kts | 22° |
| 2026-04-23 10:04 | 34.52347 | 113.84754 | 505 ft | 4 kts | 62° |
| 2026-04-23 10:05 | 34.52346 | 113.84727 | 505 ft | 4 kts | 114° |
| 2026-04-23 10:05 | 34.52353 | 113.84709 | 508 ft | 0 kts | 112° |
| 2026-04-23 10:12 | 34.52340 | 113.84747 | 505 ft | 11 kts | 113° |
| 2026-04-23 10:12 | 34.52253 | 113.84764 | 505 ft | 19 kts | 201° |
| 2026-04-23 10:12 | 34.52103 | 113.84688 | 505 ft | 21 kts | 202° |
| 2026-04-23 10:12 | 34.52007 | 113.84669 | 505 ft | 7 kts | 114° |
| 2026-04-23 10:13 | 34.51975 | 113.84768 | 505 ft | 18 kts | 112° |
| 2026-04-23 10:13 | 34.51915 | 113.84946 | 505 ft | 27 kts | 112° |
| 2026-04-23 10:13 | 34.51847 | 113.85161 | 505 ft | 13 kts | 89° |
| 2026-04-23 10:13 | 34.51919 | 113.85209 | 505 ft | 17 kts | 24° |
| 2026-04-23 10:14 | 34.52059 | 113.85281 | 505 ft | 27 kts | 22° |
| 2026-04-23 10:14 | 34.52259 | 113.85383 | 505 ft | 35 kts | 22° |
| 2026-04-23 10:14 | 34.52470 | 113.85486 | 505 ft | 32 kts | 22° |
| 2026-04-23 10:14 | 34.52676 | 113.85589 | 505 ft | 32 kts | 22° |
| 2026-04-23 10:15 | 34.52883 | 113.85693 | 505 ft | 32 kts | 22° |
| 2026-04-23 10:15 | 34.53068 | 113.85785 | 505 ft | 3 kts | 22° |
| 2026-04-23 10:15 | 34.53069 | 113.85785 | 505 ft | 0 kts | 22° |
| 2026-04-23 10:16 | 34.53078 | 113.85790 | 505 ft | 6 kts | 22° |
| 2026-04-23 10:16 | 34.53157 | 113.85810 | 504 ft | 17 kts | 336° |
| 2026-04-23 10:17 | 34.53229 | 113.85648 | 504 ft | 27 kts | 292° |
| 2026-04-23 10:17 | 34.53282 | 113.85490 | 504 ft | 33 kts | 292° |
| 2026-04-23 10:17 | 34.53311 | 113.85405 | 504 ft | 32 kts | 292° |
| 2026-04-23 10:18 | 34.53390 | 113.85173 | 504 ft | 30 kts | 292° |
| 2026-04-23 10:18 | 34.53470 | 113.84937 | 504 ft | 30 kts | 292° |
| 2026-04-23 10:18 | 34.53551 | 113.84698 | 504 ft | 31 kts | 292° |
| 2026-04-23 10:18 | 34.53633 | 113.84458 | 504 ft | 31 kts | 292° |
| 2026-04-23 10:19 | 34.53716 | 113.84213 | 504 ft | 31 kts | 292° |
| 2026-04-23 10:19 | 34.53790 | 113.84008 | 504 ft | 12 kts | 318° |
| 2026-04-23 10:19 | 34.53847 | 113.84019 | 504 ft | 0 kts | 23° |
| 2026-04-23 10:20 | 34.53872 | 113.84032 | 504 ft | 9 kts | 23° |
| 2026-04-23 10:20 | 34.53935 | 113.84091 | 504 ft | 15 kts | 80° |
| 2026-04-23 10:20 | 34.53917 | 113.84166 | 503 ft | 4 kts | 112° |
| 2026-04-23 10:21 | 34.53895 | 113.84232 | 503 ft | 15 kts | 112° |
| 2026-04-23 10:21 | 34.53795 | 113.84527 | 501 ft | 70 kts | 112° |
| 2026-04-23 10:21 | 34.53530 | 113.85306 | 490 ft | 128 kts | 112° |
| 2026-04-23 10:21 | 34.53130 | 113.86482 | 496 ft | 172 kts | 111° |
| 2026-04-23 10:22 | 34.52663 | 113.87879 | 965 ft | 177 kts | 113° |
| 2026-04-23 10:22 | 34.52200 | 113.89256 | 1718 ft | 175 kts | 114° |
| 2026-04-23 10:22 | 34.51728 | 113.90612 | 2429 ft | 174 kts | 115° |
| 2026-04-23 10:22 | 34.51245 | 113.91977 | 2915 ft | 186 kts | 114° |
| 2026-04-23 10:23 | 34.50710 | 113.93533 | 3007 ft | 214 kts | 113° |
| 2026-04-23 10:23 | 34.50129 | 113.95239 | 3016 ft | 235 kts | 113° |
| 2026-04-23 10:23 | 34.49474 | 113.97166 | 3532 ft | 248 kts | 112° |
| 2026-04-23 10:23 | 34.48806 | 113.99132 | 4068 ft | 264 kts | 112° |
| 2026-04-23 10:24 | 34.48095 | 114.01220 | 4810 ft | 271 kts | 112° |
| 2026-04-23 10:24 | 34.47279 | 114.03329 | 5623 ft | 275 kts | 122° |
| 2026-04-23 10:24 | 34.45998 | 114.05052 | 6460 ft | 277 kts | 142° |
| 2026-04-23 10:24 | 34.44327 | 114.06163 | 7241 ft | 281 kts | 161° |
| 2026-04-23 10:25 | 34.42365 | 114.06600 | 8016 ft | 286 kts | 173° |
| 2026-04-23 10:25 | 34.40367 | 114.06835 | 8764 ft | 291 kts | 173° |
| 2026-04-23 10:25 | 34.38338 | 114.07079 | 9515 ft | 296 kts | 173° |
| 2026-04-23 10:25 | 34.36277 | 114.07331 | 9791 ft | 299 kts | 173° |
| 2026-04-23 10:26 | 34.34237 | 114.07586 | 9853 ft | 298 kts | 173° |
| 2026-04-23 10:26 | 34.32178 | 114.08039 | 9853 ft | 297 kts | 161° |
| 2026-04-23 10:26 | 34.30311 | 114.08998 | 9854 ft | 296 kts | 153° |
| 2026-04-23 10:26 | 34.28462 | 114.10082 | 9853 ft | 296 kts | 153° |
| 2026-04-23 10:27 | 34.26584 | 114.11177 | 9857 ft | 295 kts | 153° |
| 2026-04-23 10:27 | 34.24760 | 114.12236 | 9856 ft | 295 kts | 153° |
| 2026-04-23 10:27 | 34.22889 | 114.13318 | 10201 ft | 303 kts | 153° |
| 2026-04-23 10:27 | 34.20915 | 114.14457 | 10440 ft | 326 kts | 153° |
| 2026-04-23 10:28 | 34.18796 | 114.15680 | 10604 ft | 349 kts | 153° |
| 2026-04-23 10:28 | 34.16533 | 114.16986 | 10728 ft | 371 kts | 153° |
| 2026-04-23 10:28 | 34.14137 | 114.18366 | 10853 ft | 391 kts | 153° |
| 2026-04-23 10:28 | 34.11637 | 114.19804 | 11144 ft | 403 kts | 153° |
| 2026-04-23 10:29 | 34.09088 | 114.21268 | 11608 ft | 409 kts | 154° |
| 2026-04-23 10:29 | 34.06472 | 114.22769 | 11782 ft | 411 kts | 154° |
| 2026-04-23 10:29 | 34.03924 | 114.24233 | 11813 ft | 411 kts | 154° |
| 2026-04-23 10:29 | 34.01343 | 114.25712 | 11812 ft | 411 kts | 154° |
| 2026-04-23 10:30 | 33.98760 | 114.27192 | 11815 ft | 411 kts | 154° |
| 2026-04-23 10:30 | 33.96176 | 114.28673 | 11814 ft | 411 kts | 154° |
| 2026-04-23 10:30 | 33.93595 | 114.30150 | 11814 ft | 411 kts | 154° |
| 2026-04-23 10:30 | 33.91011 | 114.31627 | 11814 ft | 411 kts | 154° |
| 2026-04-23 10:31 | 33.88430 | 114.33101 | 11812 ft | 411 kts | 154° |
| 2026-04-23 10:31 | 33.85847 | 114.34577 | 11812 ft | 411 kts | 154° |
| 2026-04-23 10:31 | 33.83264 | 114.36055 | 11812 ft | 411 kts | 154° |
| 2026-04-23 10:31 | 33.80685 | 114.37528 | 11812 ft | 411 kts | 154° |
| 2026-04-23 10:32 | 33.78100 | 114.39004 | 11818 ft | 411 kts | 154° |
| 2026-04-23 10:32 | 33.75520 | 114.40476 | 11814 ft | 411 kts | 154° |
| 2026-04-23 10:32 | 33.72940 | 114.41946 | 11814 ft | 410 kts | 153° |
| 2026-04-23 10:32 | 33.70360 | 114.43415 | 11814 ft | 410 kts | 154° |
| 2026-04-23 10:33 | 33.67779 | 114.44881 | 11817 ft | 410 kts | 154° |
| 2026-04-23 10:33 | 33.65190 | 114.46349 | 12082 ft | 414 kts | 154° |
| 2026-04-23 10:33 | 33.62572 | 114.47833 | 12674 ft | 417 kts | 154° |
| 2026-04-23 10:33 | 33.59937 | 114.49328 | 13208 ft | 421 kts | 154° |
| 2026-04-23 10:34 | 33.57277 | 114.50841 | 13725 ft | 425 kts | 154° |
| 2026-04-23 10:34 | 33.54593 | 114.52368 | 14183 ft | 429 kts | 154° |
| 2026-04-23 10:34 | 33.51922 | 114.53884 | 14636 ft | 432 kts | 154° |
| 2026-04-23 10:34 | 33.49193 | 114.55427 | 15093 ft | 435 kts | 155° |
| 2026-04-23 10:35 | 33.46443 | 114.56980 | 15541 ft | 439 kts | 155° |
| 2026-04-23 10:35 | 33.43672 | 114.58545 | 15963 ft | 442 kts | 155° |
| 2026-04-23 10:35 | 33.40876 | 114.60122 | 16388 ft | 446 kts | 155° |
| 2026-04-23 10:35 | 33.38060 | 114.61708 | 16822 ft | 449 kts | 155° |
| 2026-04-23 10:36 | 33.35224 | 114.63307 | 17251 ft | 452 kts | 156° |
| 2026-04-23 10:36 | 33.32373 | 114.64915 | 17680 ft | 455 kts | 156° |
| 2026-04-23 10:36 | 33.29499 | 114.66531 | 18093 ft | 458 kts | 156° |
| 2026-04-23 10:36 | 33.26605 | 114.68156 | 18484 ft | 461 kts | 156° |
| 2026-04-23 10:37 | 33.23657 | 114.69667 | 18836 ft | 462 kts | 163° |
| 2026-04-23 10:37 | 33.20555 | 114.70663 | 19190 ft | 461 kts | 172° |
| 2026-04-23 10:37 | 33.17376 | 114.71083 | 19545 ft | 459 kts | 181° |
| 2026-04-23 10:37 | 33.14192 | 114.70931 | 19899 ft | 458 kts | 188° |
| 2026-04-23 10:38 | 33.11014 | 114.70603 | 20258 ft | 459 kts | 188° |
| 2026-04-23 10:38 | 33.07825 | 114.70283 | 20616 ft | 461 kts | 188° |
| 2026-04-23 10:38 | 33.05707 | 114.70075 | 20847 ft | 461 kts | 188° |
| 2026-04-23 10:38 | 33.02828 | 114.69794 | 21154 ft | 463 kts | 188° |
| 2026-04-23 10:39 | 33.00568 | 114.69574 | 21394 ft | 464 kts | 188° |
| 2026-04-23 10:39 | 32.98130 | 114.69335 | 21644 ft | 465 kts | 188° |
| 2026-04-23 10:39 | 32.94900 | 114.69017 | 21965 ft | 466 kts | 188° |
| 2026-04-23 10:39 | 32.91665 | 114.68700 | 22265 ft | 467 kts | 188° |
| 2026-04-23 10:40 | 32.88421 | 114.68382 | 22576 ft | 469 kts | 188° |
| 2026-04-23 10:40 | 32.85168 | 114.68066 | 22879 ft | 470 kts | 188° |
| 2026-04-23 10:40 | 32.81901 | 114.67754 | 23178 ft | 471 kts | 188° |
| 2026-04-23 10:40 | 32.78628 | 114.67445 | 23474 ft | 473 kts | 188° |
| 2026-04-23 10:41 | 32.75341 | 114.67140 | 23734 ft | 474 kts | 188° |
| 2026-04-23 10:41 | 32.72057 | 114.66838 | 24069 ft | 473 kts | 188° |
| 2026-04-23 10:41 | 32.68784 | 114.66535 | 24427 ft | 471 kts | 189° |
| 2026-04-23 10:41 | 32.65521 | 114.66231 | 24793 ft | 469 kts | 189° |
| 2026-04-23 10:42 | 32.62270 | 114.65926 | 25153 ft | 468 kts | 189° |
| 2026-04-23 10:42 | 32.59029 | 114.65620 | 25515 ft | 467 kts | 189° |
| 2026-04-23 10:42 | 32.55798 | 114.65314 | 25878 ft | 465 kts | 189° |
| 2026-04-23 10:42 | 32.52574 | 114.65007 | 26246 ft | 464 kts | 189° |
| 2026-04-23 10:43 | 32.49360 | 114.64702 | 26613 ft | 463 kts | 189° |
| 2026-04-23 10:43 | 32.46156 | 114.64400 | 26960 ft | 462 kts | 190° |
| 2026-04-23 10:43 | 32.42958 | 114.64103 | 27375 ft | 459 kts | 191° |
| 2026-04-23 10:43 | 32.39787 | 114.63808 | 27791 ft | 457 kts | 191° |
| 2026-04-23 10:44 | 32.36621 | 114.63513 | 28194 ft | 456 kts | 191° |
| 2026-04-23 10:44 | 32.33467 | 114.63212 | 28589 ft | 454 kts | 191° |
| 2026-04-23 10:44 | 32.30325 | 114.62905 | 28988 ft | 452 kts | 192° |
| 2026-04-23 10:44 | 32.27194 | 114.62597 | 29390 ft | 451 kts | 192° |
| 2026-04-23 10:45 | 32.24069 | 114.62291 | 29788 ft | 449 kts | 192° |
| 2026-04-23 10:45 | 32.20960 | 114.61987 | 30154 ft | 448 kts | 193° |
| 2026-04-23 10:45 | 32.17872 | 114.61686 | 30573 ft | 444 kts | 193° |
| 2026-04-23 10:45 | 32.14806 | 114.61386 | 30947 ft | 441 kts | 193° |
| 2026-04-23 10:46 | 32.11759 | 114.61087 | 31307 ft | 439 kts | 193° |
| 2026-04-23 10:46 | 32.08719 | 114.60789 | 31649 ft | 437 kts | 194° |
| 2026-04-23 10:46 | 32.05691 | 114.60494 | 31982 ft | 436 kts | 194° |
| 2026-04-23 10:46 | 32.02675 | 114.60203 | 32323 ft | 434 kts | 194° |
| 2026-04-23 10:47 | 31.99671 | 114.59916 | 32660 ft | 433 kts | 194° |
| 2026-04-23 10:47 | 31.96675 | 114.59631 | 32968 ft | 431 kts | 194° |
| 2026-04-23 10:47 | 31.93702 | 114.59349 | 33400 ft | 427 kts | 194° |
| 2026-04-23 10:47 | 31.90749 | 114.59066 | 33776 ft | 424 kts | 194° |
| 2026-04-23 10:48 | 31.87814 | 114.58780 | 34057 ft | 423 kts | 195° |
| 2026-04-23 10:48 | 31.84874 | 114.58490 | 34118 ft | 426 kts | 195° |
| 2026-04-23 10:48 | 31.78928 | 114.57899 | 34123 ft | 430 kts | 194° |
| 2026-04-23 10:49 | 31.72951 | 114.57327 | 34095 ft | 431 kts | 195° |
| 2026-04-23 10:49 | 31.67027 | 114.56767 | 34123 ft | 430 kts | 195° |
| 2026-04-23 10:50 | 31.61026 | 114.56200 | 34120 ft | 430 kts | 195° |
| 2026-04-23 10:50 | 31.55065 | 114.55621 | 34121 ft | 430 kts | 195° |
| 2026-04-23 10:51 | 31.49105 | 114.55048 | 34119 ft | 429 kts | 195° |
| 2026-04-23 10:51 | 31.43149 | 114.54475 | 34115 ft | 429 kts | 195° |
| 2026-04-23 10:52 | 31.37193 | 114.53915 | 34115 ft | 429 kts | 195° |
| 2026-04-23 10:52 | 31.31236 | 114.53356 | 34116 ft | 429 kts | 195° |
| 2026-04-23 10:53 | 31.25337 | 114.52599 | 34115 ft | 419 kts | 202° |
| 2026-04-23 10:53 | 31.22591 | 114.51620 | 34075 ft | 408 kts | 211° |
| 2026-04-23 10:53 | 31.20023 | 114.50241 | 34099 ft | 406 kts | 214° |
| 2026-04-23 10:54 | 31.14917 | 114.47389 | 34102 ft | 407 kts | 214° |
| 2026-04-23 10:54 | 31.09828 | 114.44577 | 34103 ft | 408 kts | 213° |
| 2026-04-23 10:55 | 31.04700 | 114.41737 | 34107 ft | 408 kts | 214° |
| 2026-04-23 10:55 | 30.99575 | 114.38899 | 34075 ft | 407 kts | 214° |
| 2026-04-23 10:56 | 30.94452 | 114.36079 | 34100 ft | 407 kts | 214° |
| 2026-04-23 10:56 | 30.89311 | 114.33285 | 34094 ft | 408 kts | 213° |
| 2026-04-23 10:57 | 30.84264 | 114.30358 | 34091 ft | 398 kts | 222° |
| 2026-04-23 10:57 | 30.80449 | 114.25946 | 34089 ft | 382 kts | 240° |
| 2026-04-23 10:58 | 30.78170 | 114.20440 | 34057 ft | 378 kts | 246° |
| 2026-04-23 10:58 | 30.75393 | 114.15208 | 34077 ft | 381 kts | 241° |
| 2026-04-23 10:59 | 30.72514 | 114.10044 | 34087 ft | 380 kts | 241° |
| 2026-04-23 10:59 | 30.69657 | 114.04869 | 34102 ft | 380 kts | 241° |
| 2026-04-23 11:00 | 30.66803 | 113.99686 | 34097 ft | 381 kts | 241° |
| 2026-04-23 11:00 | 30.63938 | 113.94500 | 34102 ft | 382 kts | 241° |
| 2026-04-23 11:01 | 30.61066 | 113.89314 | 34105 ft | 382 kts | 241° |
| 2026-04-23 11:01 | 30.58197 | 113.84129 | 34095 ft | 381 kts | 241° |
| 2026-04-23 11:02 | 30.55335 | 113.78958 | 34103 ft | 380 kts | 241° |
| 2026-04-23 11:02 | 30.52480 | 113.73798 | 34118 ft | 380 kts | 242° |
| 2026-04-23 11:03 | 30.49624 | 113.68636 | 34121 ft | 380 kts | 241° |
| 2026-04-23 11:03 | 30.46756 | 113.63474 | 34114 ft | 381 kts | 241° |
| 2026-04-23 11:04 | 30.43889 | 113.58314 | 34106 ft | 381 kts | 241° |
| 2026-04-23 11:04 | 30.41013 | 113.53154 | 34108 ft | 381 kts | 241° |
| 2026-04-23 11:05 | 30.38135 | 113.48006 | 34092 ft | 380 kts | 241° |
| 2026-04-23 11:05 | 30.35668 | 113.43589 | 34106 ft | 379 kts | 242° |